createdAt,value
2023-04-14T00:00:41.755Z,100620.00
2023-04-14T00:03:08.801Z,100626.00
2023-04-14T00:05:35.736Z,100618.00
2023-04-14T00:08:02.536Z,100628.00
2023-04-14T00:10:29.391Z,100632.00
2023-04-14T00:12:56.379Z,100623.00
2023-04-14T00:15:23.278Z,100622.00
2023-04-14T00:17:50.139Z,100625.00
2023-04-14T00:20:16.971Z,100614.00
2023-04-14T00:22:43.833Z,100622.00
2023-04-14T00:25:10.785Z,100606.00
2023-04-14T00:27:37.680Z,100613.00
2023-04-14T00:30:05.280Z,100610.00
2023-04-14T00:32:32.259Z,100617.00
2023-04-14T00:35:00.241Z,100613.00
2023-04-14T00:37:27.042Z,100614.00
2023-04-14T00:39:53.839Z,100614.00
2023-04-14T00:42:20.599Z,100612.00
2023-04-14T00:44:48.241Z,100620.00
2023-04-14T00:47:16.234Z,100631.00
2023-04-14T00:49:43.105Z,100627.00
2023-04-14T00:52:10.420Z,100620.00
2023-04-14T00:54:37.761Z,100625.00
2023-04-14T00:57:05.383Z,100631.00
2023-04-14T00:59:32.327Z,100630.00
2023-04-14T01:01:59.760Z,100635.00
2023-04-14T01:04:36.750Z,100627.00
2023-04-14T01:07:12.003Z,100630.00
2023-04-14T01:09:38.849Z,100630.00
2023-04-14T01:12:08.827Z,100637.00
2023-04-14T01:14:38.468Z,100621.00
2023-04-14T01:17:15.797Z,100629.00
2023-04-14T01:20:19.170Z,100624.00
2023-04-14T01:23:07.002Z,100633.00
2023-04-14T01:25:58.725Z,100635.00
2023-04-14T01:28:49.655Z,100626.00
2023-04-14T01:31:27.151Z,100636.00
2023-04-14T01:34:11.510Z,100645.00
2023-04-14T01:36:42.428Z,100641.00
2023-04-14T01:39:14.230Z,100632.00
2023-04-14T01:41:44.817Z,100627.00
2023-04-14T01:44:12.744Z,100630.00
2023-04-14T01:46:40.251Z,100643.00
2023-04-14T01:49:07.126Z,100631.00
2023-04-14T01:51:34.415Z,100634.00
2023-04-14T01:54:01.653Z,100644.00
2023-04-14T01:56:29.029Z,100653.00
2023-04-14T01:58:57.370Z,100646.00
2023-04-14T02:01:26.438Z,100655.00
2023-04-14T02:03:53.490Z,100661.00
2023-04-14T02:06:21.608Z,100645.00
2023-04-14T02:08:48.699Z,100665.00
2023-04-14T02:11:16.248Z,100655.00
2023-04-14T02:13:43.594Z,100661.00
2023-04-14T02:16:11.484Z,100662.00
2023-04-14T02:18:40.530Z,100659.00
2023-04-14T02:21:08.554Z,100656.00
2023-04-14T02:23:35.479Z,100656.00
2023-04-14T02:26:10.908Z,100648.00
2023-04-14T02:28:49.059Z,100655.00
2023-04-14T02:31:21.421Z,100656.00
2023-04-14T02:33:50.587Z,100651.00
2023-04-14T02:36:19.291Z,100644.00
2023-04-14T02:38:49.628Z,100651.00
2023-04-14T02:41:22.154Z,100652.00
2023-04-14T02:44:18.460Z,100643.00
2023-04-14T02:47:09.758Z,100644.00
2023-04-14T02:49:38.149Z,100643.00
2023-04-14T02:52:12.769Z,100649.00
2023-04-14T02:54:41.677Z,100656.00
2023-04-14T02:57:09.012Z,100655.00
2023-04-14T02:59:36.419Z,100660.00
2023-04-14T03:02:05.270Z,100665.00
2023-04-14T03:04:36.581Z,100662.00
2023-04-14T03:07:05.704Z,100666.00
2023-04-14T03:09:32.873Z,100669.00
2023-04-14T03:12:01.130Z,100670.00
2023-04-14T03:14:28.249Z,100669.00
2023-04-14T03:16:56.069Z,100669.00
2023-04-14T03:19:23.956Z,100676.00
2023-04-14T03:21:51.545Z,100671.00
2023-04-14T03:24:27.246Z,100672.00
2023-04-14T03:26:59.982Z,100670.00
2023-04-14T03:29:29.167Z,100669.00
2023-04-14T03:31:58.394Z,100660.00
2023-04-14T03:34:26.414Z,100672.00
2023-04-14T03:36:54.913Z,100672.00
2023-04-14T03:39:24.246Z,100678.00
2023-04-14T03:41:51.889Z,100676.00
2023-04-14T03:44:19.272Z,100683.00
2023-04-14T03:46:46.778Z,100684.00
2023-04-14T03:49:16.751Z,100683.00
2023-04-14T03:51:45.439Z,100684.00
2023-04-14T03:54:13.237Z,100669.00
2023-04-14T03:56:41.414Z,100678.00
2023-04-14T03:59:12.545Z,100683.00
2023-04-14T04:01:40.546Z,100689.00
2023-04-14T04:04:07.994Z,100686.00
2023-04-14T04:06:37.148Z,100686.00
2023-04-14T04:09:04.955Z,100683.00
2023-04-14T04:11:34.018Z,100677.00
2023-04-14T04:14:02.178Z,100686.00
2023-04-14T04:16:31.017Z,100693.00
2023-04-14T04:18:59.220Z,100680.00
2023-04-14T04:21:27.356Z,100680.00
2023-04-14T04:23:56.108Z,100693.00
2023-04-14T04:26:25.205Z,100696.00
2023-04-14T04:28:52.574Z,100688.00
2023-04-14T04:31:20.384Z,100688.00
2023-04-14T04:33:47.187Z,100690.00
2023-04-14T04:36:14.172Z,100700.00
2023-04-14T04:38:42.855Z,100699.00
2023-04-14T04:41:29.435Z,100694.00
2023-04-14T04:43:56.652Z,100695.00
2023-04-14T04:46:41.199Z,100680.00
2023-04-14T04:49:08.028Z,100713.00
2023-04-14T04:51:34.969Z,100718.00
2023-04-14T04:54:01.853Z,100714.00
2023-04-14T04:56:28.711Z,100721.00
2023-04-14T04:58:55.560Z,100726.00
2023-04-14T05:01:22.481Z,100722.00
2023-04-14T05:03:49.296Z,100724.00
2023-04-14T05:06:16.629Z,100720.00
2023-04-14T05:08:43.493Z,100728.00
2023-04-14T05:11:10.626Z,100724.00
2023-04-14T05:13:37.518Z,100718.00
2023-04-14T05:16:05.005Z,100724.00
2023-04-14T05:18:32.168Z,100706.00
2023-04-14T05:21:06.532Z,100712.00
2023-04-14T05:23:34.499Z,100704.00
2023-04-14T05:26:14.674Z,100721.00
2023-04-14T05:28:48.049Z,100721.00
2023-04-14T05:31:14.995Z,100720.00
2023-04-14T05:33:41.901Z,100712.00
2023-04-14T05:36:08.781Z,100710.00
2023-04-14T05:38:41.810Z,100708.00
2023-04-14T05:41:08.914Z,100720.00
2023-04-14T05:43:35.879Z,100714.00
2023-04-14T05:46:02.746Z,100714.00
2023-04-14T05:48:31.002Z,100718.00
2023-04-14T05:50:58.221Z,100721.00
2023-04-14T05:53:25.297Z,100719.00
2023-04-14T05:55:52.728Z,100724.00
2023-04-14T05:58:20.064Z,100730.00
2023-04-14T06:00:46.937Z,100726.00
2023-04-14T06:03:15.096Z,100722.00
2023-04-14T06:05:42.065Z,100727.00
2023-04-14T06:08:08.922Z,100728.00
2023-04-14T06:10:35.879Z,100724.00
2023-04-14T06:13:02.693Z,100730.00
2023-04-14T06:15:29.913Z,100738.00
2023-04-14T06:17:56.968Z,100724.00
2023-04-14T06:20:23.997Z,100736.00
2023-04-14T06:22:50.882Z,100741.00
2023-04-14T06:25:17.754Z,100737.00
2023-04-14T06:27:44.638Z,100734.00
2023-04-14T06:30:11.870Z,100735.00
2023-04-14T06:32:38.741Z,100742.00
2023-04-14T06:35:06.024Z,100730.00
2023-04-14T06:37:32.834Z,100746.00
2023-04-14T06:39:59.698Z,100741.00
2023-04-14T06:42:27.282Z,100733.00
2023-04-14T06:44:54.070Z,100731.00
2023-04-14T06:47:22.734Z,100731.00
2023-04-14T06:49:49.892Z,100743.00
2023-04-14T06:52:16.729Z,100734.00
2023-04-14T06:54:43.617Z,100734.00
2023-04-14T06:57:10.489Z,100739.00
2023-04-14T06:59:37.542Z,100741.00
2023-04-14T07:02:04.801Z,100724.00
2023-04-14T07:04:31.774Z,100736.00
2023-04-14T07:07:01.762Z,100744.00
2023-04-14T07:09:31.487Z,100734.00
2023-04-14T07:11:58.433Z,100734.00
2023-04-14T07:14:25.296Z,100742.00
2023-04-14T07:16:52.463Z,100727.00
2023-04-14T07:19:19.743Z,100740.00
2023-04-14T07:21:46.977Z,100739.00
2023-04-14T07:24:15.521Z,100742.00
2023-04-14T07:26:44.203Z,100745.00
2023-04-14T07:29:11.095Z,100742.00
2023-04-14T07:31:38.929Z,100751.00
2023-04-14T07:34:06.282Z,100760.00
2023-04-14T07:36:33.279Z,100763.00
2023-04-14T07:39:00.403Z,100763.00
2023-04-14T07:41:28.044Z,100774.00
2023-04-14T07:43:55.795Z,100769.00
2023-04-14T07:46:22.804Z,100777.00
2023-04-14T07:48:49.733Z,100782.00
2023-04-14T07:51:17.216Z,100798.00
2023-04-14T07:53:45.137Z,100790.00
2023-04-14T07:56:12.636Z,100808.00
2023-04-14T07:58:40.181Z,100796.00
2023-04-14T08:01:07.782Z,100793.00
2023-04-14T08:03:37.361Z,100800.00
2023-04-14T08:06:05.967Z,100791.00
2023-04-14T08:08:33.855Z,100794.00
2023-04-14T08:11:00.886Z,100774.00
2023-04-14T08:13:27.676Z,100775.00
2023-04-14T08:15:54.628Z,100796.00
2023-04-14T08:18:21.835Z,100792.00
2023-04-14T08:20:48.688Z,100804.00
2023-04-14T08:23:16.162Z,100807.00
2023-04-14T08:25:44.257Z,100804.00
2023-04-14T08:28:11.224Z,100814.00
2023-04-14T08:30:38.235Z,100800.00
2023-04-14T08:33:05.238Z,100821.00
2023-04-14T08:35:36.880Z,100792.00
2023-04-14T08:38:08.597Z,100814.00
2023-04-14T08:40:43.552Z,100798.00
2023-04-14T08:43:13.274Z,100811.00
2023-04-14T08:45:41.894Z,100814.00
2023-04-14T08:48:09.644Z,100823.00
2023-04-14T08:50:43.059Z,100819.00
2023-04-14T08:53:10.441Z,100808.00
2023-04-14T08:55:43.281Z,100800.00
2023-04-14T08:58:13.134Z,100816.00
2023-04-14T09:00:41.236Z,100814.00
2023-04-14T09:03:09.298Z,100809.00
2023-04-14T09:05:37.299Z,100823.00
2023-04-14T09:08:04.608Z,100810.00
2023-04-14T09:10:31.713Z,100822.00
2023-04-14T09:12:58.787Z,100795.00
2023-04-14T09:15:29.096Z,100792.00
2023-04-14T09:17:56.562Z,100799.00
2023-04-14T09:20:35.529Z,100796.00
2023-04-14T09:23:07.462Z,100800.00
2023-04-14T09:25:34.579Z,100810.00
2023-04-14T09:28:01.509Z,100803.00
2023-04-14T09:30:28.872Z,100815.00
2023-04-14T09:32:57.005Z,100808.00
2023-04-14T09:35:42.282Z,100808.00
2023-04-14T09:38:09.116Z,100810.00
2023-04-14T09:40:35.939Z,100809.00
2023-04-14T09:43:02.837Z,100789.00
2023-04-14T09:45:45.356Z,100786.00
2023-04-14T09:48:13.237Z,100780.00
2023-04-14T09:51:07.057Z,100783.00
2023-04-14T09:53:35.638Z,100782.00
2023-04-14T09:56:07.323Z,100792.00
2023-04-14T09:58:39.650Z,100804.00
2023-04-14T10:01:12.933Z,100797.00
2023-04-14T10:03:44.423Z,100786.00
2023-04-14T10:06:21.229Z,100803.00
2023-04-14T10:08:52.189Z,100820.00
2023-04-14T10:11:29.973Z,100809.00
2023-04-14T10:14:01.816Z,100809.00
2023-04-14T10:16:28.755Z,100806.00
2023-04-14T10:18:58.334Z,100816.00
2023-04-14T10:21:25.693Z,100806.00
2023-04-14T10:23:52.662Z,100806.00
2023-04-14T10:26:19.718Z,100803.00
2023-04-14T10:28:51.319Z,100794.00
2023-04-14T10:31:22.551Z,100790.00
2023-04-14T10:33:49.396Z,100798.00
2023-04-14T10:36:32.664Z,100798.00
2023-04-14T10:39:02.033Z,100787.00
2023-04-14T10:41:47.565Z,100794.00
2023-04-14T10:44:29.129Z,100797.00
2023-04-14T10:46:57.023Z,100785.00
2023-04-14T10:49:38.208Z,100790.00
2023-04-14T10:52:07.086Z,100780.00
2023-04-14T10:54:53.461Z,100777.00
2023-04-14T10:57:27.935Z,100786.00
2023-04-14T10:59:57.058Z,100797.00
2023-04-14T11:02:34.585Z,100797.00
2023-04-14T11:05:11.360Z,100814.00
2023-04-14T11:07:51.705Z,100790.00
2023-04-14T11:10:21.795Z,100773.00
2023-04-14T11:12:54.267Z,100790.00
2023-04-14T11:15:21.132Z,100788.00
2023-04-14T11:17:48.268Z,100796.00
2023-04-14T11:20:19.285Z,100770.00
2023-04-14T11:22:47.660Z,100770.00
2023-04-14T11:25:16.827Z,100807.00
2023-04-14T11:27:44.548Z,100794.00
2023-04-14T11:30:21.719Z,100814.00
2023-04-14T11:32:51.322Z,100805.00
2023-04-14T11:35:19.491Z,100782.00
2023-04-14T11:37:46.918Z,100791.00
2023-04-14T11:40:15.626Z,100798.00
2023-04-14T11:42:52.986Z,100793.00
2023-04-14T11:45:20.150Z,100775.00
2023-04-14T11:47:55.879Z,100789.00
2023-04-14T11:50:22.817Z,100787.00
2023-04-14T11:52:49.654Z,100791.00
2023-04-14T11:55:16.791Z,100797.00
2023-04-14T11:57:47.217Z,100778.00
2023-04-14T12:00:14.380Z,100792.00
2023-04-14T12:02:45.512Z,100787.00
2023-04-14T12:05:14.102Z,100790.00
2023-04-14T12:07:45.749Z,100778.00
2023-04-14T12:10:13.412Z,100763.00
2023-04-14T12:12:41.223Z,100769.00
2023-04-14T12:15:09.407Z,100774.00
2023-04-14T12:17:37.234Z,100765.00
2023-04-14T12:20:05.541Z,100756.00
2023-04-14T12:22:32.496Z,100753.00
2023-04-14T12:24:59.396Z,100757.00
2023-04-14T12:27:27.545Z,100740.00
2023-04-14T12:29:54.460Z,100725.00
2023-04-14T12:32:22.748Z,100738.00
2023-04-14T12:34:57.964Z,100725.00
2023-04-14T12:37:26.971Z,100721.00
2023-04-14T12:39:59.896Z,100721.00
2023-04-14T12:42:42.983Z,100728.00
2023-04-14T12:45:10.664Z,100724.00
2023-04-14T12:47:37.855Z,100732.00
2023-04-14T12:50:30.347Z,100743.00
2023-04-14T12:52:57.420Z,100741.00
2023-04-14T12:55:27.546Z,100721.00
2023-04-14T12:57:54.796Z,100721.00
2023-04-14T13:00:22.809Z,100727.00
2023-04-14T13:02:51.144Z,100712.00
2023-04-14T13:05:18.201Z,100722.00
2023-04-14T13:07:46.500Z,100722.00
2023-04-14T13:10:13.688Z,100711.00
2023-04-14T13:12:40.621Z,100720.00
2023-04-14T13:15:07.949Z,100726.00
2023-04-14T13:17:34.996Z,100706.00
2023-04-14T13:20:01.935Z,100699.00
2023-04-14T13:22:28.841Z,100692.00
2023-04-14T13:24:58.316Z,100682.00
2023-04-14T13:27:25.495Z,100674.00
2023-04-14T13:29:52.339Z,100687.00
2023-04-14T13:32:19.357Z,100669.00
2023-04-14T13:34:46.589Z,100665.00
2023-04-14T13:37:13.570Z,100681.00
2023-04-14T13:39:40.417Z,100686.00
2023-04-14T13:42:07.239Z,100693.00
2023-04-14T13:44:35.247Z,100701.00
2023-04-14T13:47:02.770Z,100685.00
2023-04-14T13:49:30.170Z,100684.00
2023-04-14T13:51:57.161Z,100687.00
2023-04-14T13:54:23.958Z,100656.00
2023-04-14T13:56:51.127Z,100669.00
2023-04-14T13:59:18.069Z,100673.00
2023-04-14T14:01:45.132Z,100675.00
2023-04-14T14:04:12.106Z,100686.00
2023-04-14T14:06:38.983Z,100679.00
2023-04-14T14:09:06.687Z,100672.00
2023-04-14T14:11:34.281Z,100668.00
2023-04-14T14:14:01.488Z,100665.00
2023-04-14T14:16:36.586Z,100678.00
2023-04-14T14:19:07.340Z,100682.00
2023-04-14T14:21:34.314Z,100669.00
2023-04-14T14:24:01.604Z,100673.00
2023-04-14T14:26:28.817Z,100671.00
2023-04-14T14:28:55.832Z,100705.00
2023-04-14T14:31:22.686Z,100696.00
2023-04-14T14:33:49.513Z,100715.00
2023-04-14T14:36:16.335Z,100701.00
2023-04-14T14:38:43.198Z,100721.00
2023-04-14T14:41:09.996Z,100703.00
2023-04-14T14:43:37.556Z,100729.00
2023-04-14T14:46:04.766Z,100721.00
2023-04-14T14:48:31.796Z,100725.00
2023-04-14T14:50:58.599Z,100712.00
2023-04-14T14:53:25.501Z,100703.00
2023-04-14T14:55:52.315Z,100712.00
2023-04-14T14:58:19.221Z,100721.00
2023-04-14T15:00:47.263Z,100736.00
2023-04-14T15:03:14.420Z,100729.00
2023-04-14T15:05:41.614Z,100717.00
2023-04-14T15:08:08.589Z,100723.00
2023-04-14T15:10:35.525Z,100708.00
2023-04-14T15:13:02.891Z,100719.00
2023-04-14T15:15:29.730Z,100731.00
2023-04-14T15:17:56.601Z,100733.00
2023-04-14T15:20:23.483Z,100734.00
2023-04-14T15:22:50.544Z,100744.00
2023-04-14T15:25:17.544Z,100761.00
2023-04-14T15:27:44.403Z,100746.00
2023-04-14T15:30:11.469Z,100718.00
2023-04-14T15:32:38.375Z,100715.00
2023-04-14T15:35:06.031Z,100732.00
2023-04-14T15:37:32.915Z,100722.00
2023-04-14T15:39:59.789Z,100729.00
2023-04-14T15:42:26.734Z,100718.00
2023-04-14T15:44:53.595Z,100727.00
2023-04-14T15:47:20.437Z,100721.00
2023-04-14T15:49:49.874Z,100721.00
2023-04-14T15:52:34.071Z,100713.00
2023-04-14T15:55:01.132Z,100719.00
2023-04-14T15:57:27.919Z,100707.00
2023-04-14T15:59:54.770Z,100709.00
2023-04-14T16:02:21.668Z,100711.00
2023-04-14T16:04:48.627Z,100704.00
2023-04-14T16:07:15.617Z,100700.00
2023-04-14T16:09:42.498Z,100691.00
2023-04-14T16:12:09.875Z,100686.00
2023-04-14T16:14:37.605Z,100675.00
2023-04-14T16:17:04.444Z,100679.00
2023-04-14T16:19:31.792Z,100663.00
2023-04-14T16:21:58.669Z,100655.00
2023-04-14T16:24:25.586Z,100644.00
2023-04-14T16:26:52.440Z,100652.00
2023-04-14T16:29:19.307Z,100640.00
2023-04-14T16:31:46.393Z,100656.00
2023-04-14T16:34:13.388Z,100652.00
2023-04-14T16:36:40.200Z,100655.00
2023-04-14T16:39:07.080Z,100645.00
2023-04-14T16:41:33.873Z,100657.00
2023-04-14T16:44:00.989Z,100638.00
2023-04-14T16:46:27.978Z,100640.00
2023-04-14T16:48:55.048Z,100632.00
2023-04-14T16:51:22.088Z,100621.00
2023-04-14T16:53:49.459Z,100629.00
2023-04-14T16:56:17.582Z,100633.00
2023-04-14T16:58:45.250Z,100627.00
2023-04-14T17:01:12.207Z,100625.00
2023-04-14T17:03:39.400Z,100626.00
2023-04-14T17:06:06.589Z,100613.00
2023-04-14T17:08:34.197Z,100615.00
2023-04-14T17:11:01.282Z,100602.00
2023-04-14T17:13:28.896Z,100605.00
2023-04-14T17:16:07.703Z,100592.00
2023-04-14T17:18:35.483Z,100603.00
2023-04-14T17:21:02.776Z,100590.00
2023-04-14T17:23:29.565Z,100581.00
2023-04-14T17:25:57.063Z,100581.00
2023-04-14T17:28:24.131Z,100595.00
2023-04-14T17:30:50.999Z,100608.00
2023-04-14T17:33:18.571Z,100613.00
2023-04-14T17:35:45.625Z,100620.00
2023-04-14T17:38:12.447Z,100610.00
2023-04-14T17:40:39.357Z,100617.00
2023-04-14T17:43:06.149Z,100623.00
2023-04-14T17:45:34.618Z,100616.00
2023-04-14T17:48:01.507Z,100608.00
2023-04-14T17:50:29.045Z,100615.00
2023-04-14T17:52:57.302Z,100618.00
2023-04-14T17:55:24.211Z,100606.00
2023-04-14T17:57:51.577Z,100615.00
2023-04-14T18:00:19.990Z,100614.00
2023-04-14T18:02:47.071Z,100611.00
2023-04-14T18:05:14.112Z,100618.00
2023-04-14T18:07:42.278Z,100622.00
2023-04-14T18:10:09.423Z,100620.00
2023-04-14T18:12:36.757Z,100624.00
2023-04-14T18:15:05.232Z,100623.00
2023-04-14T18:17:32.304Z,100621.00
2023-04-14T18:19:59.645Z,100618.00
2023-04-14T18:22:27.402Z,100626.00
2023-04-14T18:24:54.247Z,100629.00
2023-04-14T18:29:52.889Z,100634.00
2023-04-14T18:32:20.238Z,100640.00
2023-04-14T18:34:47.115Z,100650.00
2023-04-14T18:37:15.665Z,100637.00
2023-04-14T18:39:42.769Z,100653.00
2023-04-14T18:42:10.235Z,100652.00
2023-04-14T18:44:37.574Z,100650.00
2023-04-14T18:47:04.525Z,100657.00
2023-04-14T18:49:31.362Z,100661.00
2023-04-14T18:51:58.265Z,100672.00
2023-04-14T18:54:25.128Z,100668.00
2023-04-14T18:56:51.926Z,100671.00
2023-04-14T18:59:18.761Z,100667.00
2023-04-14T19:01:46.280Z,100682.00
2023-04-14T19:04:13.301Z,100678.00
2023-04-14T19:06:40.480Z,100672.00
2023-04-14T19:09:07.275Z,100679.00
2023-04-14T19:11:36.176Z,100687.00
2023-04-14T19:14:06.117Z,100691.00
2023-04-14T19:16:33.585Z,100688.00
2023-04-14T19:19:00.898Z,100682.00
2023-04-14T19:21:28.202Z,100680.00
2023-04-14T19:23:57.055Z,100683.00
2023-04-14T19:26:27.632Z,100683.00
2023-04-14T19:28:57.578Z,100687.00
2023-04-14T19:31:28.185Z,100683.00
2023-04-14T19:33:56.234Z,100682.00
2023-04-14T19:36:23.013Z,100689.00
2023-04-14T19:38:49.881Z,100697.00
2023-04-14T19:41:16.709Z,100703.00
2023-04-14T19:43:43.701Z,100704.00
2023-04-14T19:46:13.098Z,100697.00
2023-04-14T19:48:40.666Z,100700.00
2023-04-14T19:51:07.982Z,100716.00
2023-04-14T19:53:34.813Z,100719.00
2023-04-14T19:56:02.108Z,100715.00
2023-04-14T19:58:30.509Z,100720.00
2023-04-14T20:00:57.595Z,100725.00
2023-04-14T20:03:25.437Z,100726.00
2023-04-14T20:05:53.208Z,100718.00
2023-04-14T20:08:21.676Z,100716.00
2023-04-14T20:10:51.802Z,100700.00
2023-04-14T20:13:20.111Z,100710.00
2023-04-14T20:15:49.065Z,100691.00
2023-04-14T20:18:18.425Z,100693.00
2023-04-14T20:20:46.216Z,100692.00
2023-04-14T20:23:13.137Z,100678.00
2023-04-14T20:25:40.262Z,100681.00
2023-04-14T20:28:07.546Z,100696.00
2023-04-14T20:30:34.503Z,100686.00
2023-04-14T20:33:05.750Z,100682.00
2023-04-14T20:35:35.791Z,100677.00
2023-04-14T20:38:02.773Z,100668.00
2023-04-14T20:40:30.189Z,100683.00
2023-04-14T20:42:57.106Z,100669.00
2023-04-14T20:45:24.138Z,100679.00
2023-04-14T20:47:51.087Z,100688.00
2023-04-14T20:50:18.796Z,100665.00
2023-04-14T20:52:45.720Z,100674.00
2023-04-14T20:55:13.506Z,100670.00
2023-04-14T20:57:41.810Z,100670.00
2023-04-14T21:00:10.264Z,100668.00
2023-04-14T21:02:37.476Z,100679.00
2023-04-14T21:05:05.804Z,100671.00
2023-04-14T21:07:33.109Z,100677.00
2023-04-14T21:09:59.915Z,100680.00
2023-04-14T21:12:35.611Z,100675.00
2023-04-14T21:15:30.694Z,100678.00
2023-04-14T21:17:52.564Z,100685.00
2023-04-14T21:20:20.073Z,100687.00
2023-04-14T21:22:47.031Z,100686.00
2023-04-14T21:25:14.101Z,100680.00
2023-04-14T21:27:41.560Z,100682.00
2023-04-14T21:30:11.679Z,100678.00
2023-04-14T21:32:39.391Z,100682.00
2023-04-14T21:35:07.518Z,100671.00
2023-04-14T21:37:34.645Z,100679.00
2023-04-14T21:40:06.119Z,100682.00
2023-04-14T21:42:32.998Z,100682.00
2023-04-14T21:45:00.999Z,100678.00
2023-04-14T21:47:27.869Z,100679.00
2023-04-14T21:49:54.741Z,100680.00
2023-04-14T21:52:21.535Z,100676.00
2023-04-14T21:54:50.197Z,100686.00
2023-04-14T21:57:17.041Z,100681.00
2023-04-14T22:00:04.510Z,100676.00
2023-04-14T22:02:31.396Z,100673.00
2023-04-14T22:04:58.312Z,100668.00
2023-04-14T22:07:25.150Z,100675.00
2023-04-14T22:09:51.990Z,100664.00
2023-04-14T22:12:18.850Z,100667.00
2023-04-14T22:14:46.604Z,100666.00
2023-04-14T22:17:13.436Z,100656.00
2023-04-14T22:19:40.731Z,100668.00
2023-04-14T22:22:07.584Z,100658.00
2023-04-14T22:24:34.666Z,100656.00
2023-04-14T22:27:01.745Z,100670.00
2023-04-14T22:29:28.601Z,100667.00
2023-04-14T22:31:55.652Z,100655.00
2023-04-14T22:34:22.505Z,100668.00
2023-04-14T22:36:49.307Z,100661.00
2023-04-14T22:39:16.142Z,100656.00
2023-04-14T22:41:43.008Z,100668.00
2023-04-14T22:44:09.808Z,100670.00
2023-04-14T22:46:36.822Z,100661.00
2023-04-14T22:49:03.878Z,100667.00
2023-04-14T22:51:31.180Z,100673.00
2023-04-14T22:53:58.040Z,100658.00
2023-04-14T22:56:24.870Z,100667.00
2023-04-14T22:58:51.705Z,100665.00
2023-04-14T23:01:22.750Z,100668.00
2023-04-14T23:03:52.372Z,100655.00
2023-04-14T23:06:20.193Z,100666.00
2023-04-14T23:08:51.141Z,100661.00
2023-04-14T23:11:21.040Z,100654.00
2023-04-14T23:13:49.432Z,100649.00
2023-04-14T23:16:20.233Z,100641.00
2023-04-14T23:18:52.369Z,100642.00
2023-04-14T23:21:22.278Z,100652.00
2023-04-14T23:23:52.549Z,100644.00
2023-04-14T23:26:21.711Z,100645.00
2023-04-14T23:28:48.662Z,100646.00
2023-04-14T23:31:15.585Z,100642.00
2023-04-14T23:33:42.638Z,100632.00
2023-04-14T23:36:09.463Z,100632.00
2023-04-14T23:38:36.585Z,100635.00
2023-04-14T23:41:03.538Z,100639.00
2023-04-14T23:43:30.370Z,100628.00
2023-04-14T23:45:57.909Z,100625.00
2023-04-14T23:48:26.698Z,100623.00
2023-04-14T23:50:59.593Z,100612.00
2023-04-14T23:53:40.001Z,100604.00
2023-04-14T23:56:08.047Z,100606.00
2023-04-14T23:58:34.888Z,100616.00
